Time;durP1;ratioP1;P1;durP2;ratioP2;P2;SDS_P1;SDS_P2;PMS_P1;PMS_P2;Temp;Humidity;BMP_temperature;BMP_pressure;BME280_temperature;BME280_humidity;BME280_pressure;Samples;Min_cycle;Max_cycle;Signal;HPM_P1;HPM_P2
2022/06/04 00:00:52;;;;;;;10.55;4.55;;;13.90;99.90;;;;;;4975686;28;20053;-84
2022/06/04 00:03:18;;;;;;;9.82;4.07;;;13.80;99.90;;;;;;4959760;28;20084;-84
2022/06/04 00:05:47;;;;;;;10.75;5.70;;;13.80;99.90;;;;;;4976013;28;20050;-84
2022/06/04 00:08:13;;;;;;;8.25;4.47;;;13.80;99.90;;;;;;4975316;28;20031;-84
2022/06/04 00:16:14;;;;;;;11.10;4.25;;;13.70;99.90;;;;;;4975494;28;20532;-83
2022/06/04 00:18:41;;;;;;;12.02;4.38;;;13.70;99.90;;;;;;4975255;28;20523;-83
2022/06/04 00:21:08;;;;;;;14.25;6.25;;;13.60;99.90;;;;;;4975422;28;20054;-83
2022/06/04 00:23:34;;;;;;;11.95;5.22;;;13.60;99.90;;;;;;4975560;28;20081;-83
2022/06/04 00:26:03;;;;;;;11.35;6.57;;;13.60;99.90;;;;;;4959511;28;20069;-83
2022/06/04 00:28:29;;;;;;;13.00;6.20;;;13.60;99.90;;;;;;4974966;28;20121;-83
2022/06/04 00:30:57;;;;;;;11.15;4.75;;;13.60;99.90;;;;;;4959596;28;20129;-83
2022/06/04 00:33:23;;;;;;;13.48;4.65;;;13.50;99.90;;;;;;4975599;28;20049;-83
2022/06/04 00:35:51;;;;;;;11.32;4.57;;;13.50;99.90;;;;;;4975243;28;20054;-83
2022/06/04 00:38:19;;;;;;;12.73;5.10;;;13.40;99.90;;;;;;4975121;28;20095;-83
2022/06/04 00:41:02;;;;;;;12.45;4.82;;;13.40;99.90;;;;;;4975337;28;20042;-83
2022/06/04 00:43:27;;;;;;;8.45;3.92;;;13.40;99.90;;;;;;4974855;28;20046;-83
2022/06/04 00:46:14;;;;;;;12.30;6.18;;;13.30;99.90;;;;;;4975194;28;20045;-83
2022/06/04 00:48:40;;;;;;;12.63;4.93;;;13.40;99.90;;;;;;4958927;28;20046;-83
2022/06/04 00:51:06;;;;;;;9.95;4.72;;;13.30;99.90;;;;;;4974864;28;20117;-83
2022/06/04 00:53:33;;;;;;;13.63;5.38;;;13.30;99.90;;;;;;4975130;28;20038;-83
2022/06/04 00:56:05;;;;;;;11.95;6.80;;;13.20;99.90;;;;;;4975179;28;20088;-82
2022/06/04 00:58:49;;;;;;;9.75;4.72;;;13.30;99.90;;;;;;4958326;28;20042;-83
2022/06/04 01:01:27;;;;;;;8.40;4.20;;;13.30;99.90;;;;;;4975227;28;20040;-83
2022/06/04 01:04:02;;;;;;;11.63;4.40;;;13.20;99.90;;;;;;4958747;28;20081;-82
2022/06/04 01:06:58;;;;;;;12.13;5.43;;;13.20;99.90;;;;;;4974734;28;20042;-83
2022/06/04 01:09:45;;;;;;;13.65;4.97;;;13.20;99.90;;;;;;4974600;28;20516;-83
2022/06/04 01:12:26;;;;;;;13.40;7.00;;;13.10;99.90;;;;;;4958832;28;20082;-83
2022/06/04 01:15:07;;;;;;;13.15;5.07;;;13.10;99.90;;;;;;4974869;28;20403;-83
2022/06/04 01:17:37;;;;;;;15.63;5.05;;;13.10;99.90;;;;;;4958430;28;20042;-83
2022/06/04 01:20:14;;;;;;;11.77;4.97;;;13.10;99.90;;;;;;4974556;28;20042;-83
2022/06/04 01:23:20;;;;;;;12.73;7.00;;;13.00;99.90;;;;;;4974866;28;20129;-83
2022/06/04 01:26:26;;;;;;;14.68;5.78;;;13.10;99.90;;;;;;4974924;28;20053;-83
2022/06/04 01:28:56;;;;;;;12.98;5.57;;;13.00;99.90;;;;;;4978344;28;20085;-83
2022/06/04 01:31:28;;;;;;;10.63;5.47;;;13.00;99.90;;;;;;4962925;28;20097;-83
2022/06/04 01:33:59;;;;;;;14.45;7.95;;;12.90;99.90;;;;;;4978945;28;20042;-83
2022/06/04 01:36:49;;;;;;;15.90;5.82;;;13.00;99.90;;;;;;4962352;28;20511;-83
2022/06/04 01:39:21;;;;;;;14.40;5.43;;;12.90;99.90;;;;;;4978541;28;20045;-83
2022/06/04 01:41:54;;;;;;;12.95;8.10;;;12.90;99.90;;;;;;4978873;28;20126;-83
2022/06/04 01:44:33;;;;;;;12.25;5.90;;;12.90;99.90;;;;;;4977893;28;20496;-83
2022/06/04 01:47:04;;;;;;;14.57;6.32;;;12.90;99.90;;;;;;4978556;28;20038;-83
2022/06/04 01:49:36;;;;;;;16.25;8.45;;;12.80;99.90;;;;;;4977947;28;20576;-83
2022/06/04 01:52:08;;;;;;;13.20;5.55;;;12.90;99.90;;;;;;4978478;28;20039;-83
2022/06/04 01:54:43;;;;;;;11.35;5.20;;;12.90;99.90;;;;;;4978364;28;20034;-83
2022/06/04 01:57:16;;;;;;;12.57;6.05;;;12.80;99.90;;;;;;4962229;28;20038;-83
2022/06/04 01:59:46;;;;;;;12.68;6.35;;;12.70;99.90;;;;;;4978143;28;20050;-83
2022/06/04 02:02:26;;;;;;;14.57;8.48;;;12.70;99.90;;;;;;4962060;28;20085;-83
2022/06/04 02:04:55;;;;;;;14.70;6.18;;;12.80;99.90;;;;;;4977833;28;20114;-83
2022/06/04 02:07:30;;;;;;;14.13;6.93;;;12.80;99.90;;;;;;4962203;28;20042;-83
2022/06/04 02:10:05;;;;;;;15.25;9.02;;;12.70;99.90;;;;;;4978233;28;20046;-84
2022/06/04 02:12:33;;;;;;;17.08;6.85;;;12.70;99.90;;;;;;4977986;28;20046;-83
2022/06/04 02:14:59;;;;;;;13.80;6.07;;;12.70;99.90;;;;;;4978316;28;20046;-84
2022/06/04 02:17:26;;;;;;;14.50;6.30;;;12.60;99.90;;;;;;4977984;28;20053;-83
2022/06/04 02:19:51;;;;;;;16.27;8.60;;;12.60;99.90;;;;;;4961256;28;20046;-83
2022/06/04 02:22:17;;;;;;;13.20;5.97;;;12.70;99.90;;;;;;4977834;28;20424;-83
2022/06/04 02:24:43;;;;;;;14.55;6.72;;;12.60;99.90;;;;;;4977871;28;20046;-83
2022/06/04 02:27:09;;;;;;;15.15;6.18;;;12.60;99.90;;;;;;4961346;28;20076;-83
2022/06/04 02:29:37;;;;;;;15.48;6.75;;;12.50;99.90;;;;;;4977458;28;20096;-83
2022/06/04 02:32:23;;;;;;;12.93;6.65;;;12.50;99.90;;;;;;4977492;28;20074;-83
2022/06/04 02:35:11;;;;;;;12.48;6.40;;;12.50;99.90;;;;;;4961539;28;20065;-83
2022/06/04 02:37:53;;;;;;;12.75;6.63;;;12.50;99.90;;;;;;4977165;28;20085;-83
2022/06/04 02:40:25;;;;;;;14.40;9.50;;;12.50;99.90;;;;;;4977822;28;20047;-83
2022/06/04 02:43:04;;;;;;;12.43;5.75;;;12.50;99.90;;;;;;4977370;28;20038;-83
2022/06/04 02:45:50;;;;;;;13.15;6.43;;;12.50;99.90;;;;;;4961277;28;20073;-83
2022/06/04 02:48:22;;;;;;;13.10;6.63;;;12.40;99.90;;;;;;4960998;28;20049;-83
2022/06/04 02:50:55;;;;;;;20.55;6.35;;;12.40;99.90;;;;;;4961263;28;20054;-83
2022/06/04 02:53:23;;;;;;;15.85;7.53;;;12.40;99.90;;;;;;4977337;28;20389;-83
2022/06/04 02:55:55;;;;;;;15.30;9.23;;;12.40;99.90;;;;;;4977068;28;20132;-83
2022/06/04 02:58:22;;;;;;;15.32;7.15;;;12.40;99.90;;;;;;4960629;28;20046;-83
2022/06/04 03:00:52;;;;;;;14.35;6.43;;;12.40;99.90;;;;;;4973459;28;20045;-82
2022/06/04 03:03:18;;;;;;;15.07;6.35;;;12.30;99.90;;;;;;4957806;28;20042;-82
2022/06/04 03:05:55;;;;;;;13.52;7.25;;;12.30;99.90;;;;;;4976373;28;20050;-82
2022/06/04 03:08:21;;;;;;;15.25;6.38;;;12.30;99.90;;;;;;4976829;28;20038;-82
2022/06/04 03:10:47;;;;;;;19.42;9.60;;;12.30;99.90;;;;;;4961004;28;20121;-83
2022/06/04 03:13:13;;;;;;;15.68;9.30;;;12.30;99.90;;;;;;4976655;28;20049;-83
2022/06/04 03:15:39;;;;;;;15.68;9.65;;;12.40;99.90;;;;;;4977289;28;20039;-82
2022/06/04 03:18:05;;;;;;;12.82;5.65;;;12.40;99.90;;;;;;4976697;28;20042;-83
2022/06/04 03:20:30;;;;;;;12.75;6.00;;;12.30;99.90;;;;;;4976426;28;20050;-82
2022/06/04 03:22:56;;;;;;;14.13;6.18;;;12.20;99.90;;;;;;4976702;28;20053;-83
2022/06/04 03:25:22;;;;;;;13.82;6.22;;;12.20;99.90;;;;;;4976529;28;20046;-83
2022/06/04 03:27:48;;;;;;;11.23;6.22;;;12.10;99.90;;;;;;4976144;28;20046;-83
2022/06/04 03:30:15;;;;;;;14.15;6.63;;;12.20;99.90;;;;;;4976776;28;20503;-83
2022/06/04 03:32:41;;;;;;;10.98;5.75;;;12.10;99.90;;;;;;4976532;28;20109;-83
2022/06/04 03:35:07;;;;;;;13.85;6.18;;;12.20;99.90;;;;;;4976185;28;20555;-83
2022/06/04 03:37:34;;;;;;;11.43;5.47;;;12.10;99.90;;;;;;4960252;28;20690;-83
2022/06/04 03:40:01;;;;;;;11.32;6.07;;;12.10;99.90;;;;;;4976426;28;20048;-83
2022/06/04 03:42:26;;;;;;;13.10;8.02;;;12.20;99.90;;;;;;4976052;28;20085;-83
2022/06/04 03:44:52;;;;;;;12.30;5.82;;;12.20;99.90;;;;;;4976484;28;20451;-83
2022/06/04 03:47:18;;;;;;;11.95;5.97;;;12.20;99.90;;;;;;4960127;28;20041;-83
2022/06/04 03:49:45;;;;;;;13.25;6.75;;;12.10;99.90;;;;;;4974912;28;20030;-83
2022/06/04 03:52:11;;;;;;;12.82;5.40;;;12.10;99.90;;;;;;4976195;28;20165;-83
2022/06/04 03:54:53;;;;;;;16.25;6.80;;;12.10;99.90;;;;;;4976185;28;20424;-83
2022/06/04 03:57:37;;;;;;;11.37;6.07;;;12.10;99.90;;;;;;4976010;28;20385;-83
2022/06/04 04:00:28;;;;;;;12.70;5.68;;;12.10;99.90;;;;;;4976028;28;20054;-83
2022/06/04 04:02:59;;;;;;;12.07;5.88;;;12.10;99.90;;;;;;4975894;28;20046;-83
2022/06/04 04:05:32;;;;;;;14.55;6.13;;;12.10;99.90;;;;;;4975948;28;20085;-83
2022/06/04 04:07:58;;;;;;;;;;;12.20;99.90;;;;;;4975993;28;20089;-83
2022/06/04 04:10:26;;;;;;;10.48;4.70;;;12.20;99.90;;;;;;4975541;28;19971;-83
2022/06/04 04:12:51;;;;;;;12.90;5.70;;;12.20;99.90;;;;;;4976009;28;20520;-83
2022/06/04 04:15:18;;;;;;;12.30;5.47;;;12.20;99.90;;;;;;4975634;28;20097;-83
2022/06/04 04:17:44;;;;;;;14.80;7.78;;;12.20;99.90;;;;;;4975181;28;20132;-83
2022/06/04 04:20:17;;;;;;;13.10;5.90;;;12.30;99.90;;;;;;4975421;28;20041;-83
2022/06/04 04:22:44;;;;;;;12.55;7.47;;;12.30;99.90;;;;;;4959667;28;20042;-83
2022/06/04 04:25:10;;;;;;;10.38;4.72;;;12.40;99.90;;;;;;4959224;28;20106;-83
2022/06/04 04:27:36;;;;;;;14.40;6.07;;;12.40;99.90;;;;;;4975519;28;20078;-83
2022/06/04 04:30:04;;;;;;;11.95;5.82;;;12.40;99.90;;;;;;4959397;28;20066;-83
2022/06/04 04:32:31;;;;;;;11.88;5.55;;;12.40;99.90;;;;;;4959460;28;20052;-83
2022/06/04 04:34:58;;;;;;;13.00;5.90;;;12.40;99.90;;;;;;4959155;28;20042;-83
2022/06/04 04:37:23;;;;;;;12.00;5.60;;;12.40;99.90;;;;;;4975012;28;20046;-83
2022/06/04 04:39:49;;;;;;;12.20;5.97;;;12.40;99.90;;;;;;4959447;28;20385;-83
2022/06/04 04:42:15;;;;;;;14.27;8.32;;;12.40;99.90;;;;;;4959012;28;20539;-83
2022/06/04 04:44:40;;;;;;;13.05;5.57;;;12.50;99.90;;;;;;4959454;28;20085;-83
2022/06/04 04:47:06;;;;;;;14.30;6.25;;;12.50;99.90;;;;;;4959503;28;20725;-83
2022/06/04 04:49:32;;;;;;;14.45;6.00;;;12.50;99.90;;;;;;4974510;28;20035;-83
2022/06/04 04:51:59;;;;;;;13.68;8.20;;;12.50;99.90;;;;;;4975362;28;20088;-83
2022/06/04 04:54:25;;;;;;;13.82;8.68;;;12.60;99.90;;;;;;4975248;28;20492;-83
2022/06/04 04:56:51;;;;;;;12.95;6.20;;;12.70;99.90;;;;;;4974777;28;20046;-83
2022/06/04 04:59:17;;;;;;;15.00;8.70;;;12.70;99.90;;;;;;4974719;28;20037;-83
2022/06/04 05:01:43;;;;;;;11.70;5.82;;;12.70;99.90;;;;;;4958433;28;20038;-83
2022/06/04 05:04:08;;;;;;;11.98;6.13;;;12.70;99.90;;;;;;4958488;28;20635;-83
2022/06/04 05:06:35;;;;;;;15.07;8.07;;;12.70;99.90;;;;;;4958962;28;20049;-83
2022/06/04 05:09:00;;;;;;;12.07;6.20;;;12.80;99.90;;;;;;4974764;28;20414;-83
2022/06/04 05:11:28;;;;;;;10.95;5.25;;;12.90;99.90;;;;;;4958522;28;20034;-83
2022/06/04 05:13:55;;;;;;;13.48;5.55;;;12.90;99.90;;;;;;4975112;28;20058;-83
2022/06/04 05:16:23;;;;;;;13.27;7.68;;;12.90;99.90;;;;;;4974956;28;20047;-83
2022/06/04 05:18:49;;;;;;;13.63;6.25;;;13.00;99.90;;;;;;4974182;28;20118;-83
2022/06/04 05:21:24;;;;;;;12.65;7.82;;;13.00;99.90;;;;;;4974801;28;20062;-83
2022/06/04 05:23:50;;;;;;;11.80;5.47;;;13.10;99.90;;;;;;4974717;28;20093;-83
2022/06/04 05:26:17;;;;;;;15.25;6.60;;;13.10;99.90;;;;;;4974486;28;20042;-83
2022/06/04 05:28:42;;;;;;;13.23;7.60;;;13.10;99.90;;;;;;4958403;28;20042;-83
2022/06/04 05:31:09;;;;;;;12.73;7.55;;;13.20;99.90;;;;;;4974665;28;20049;-83
2022/06/04 05:33:34;;;;;;;11.88;8.18;;;13.30;99.90;;;;;;4974570;28;20034;-83
2022/06/04 05:36:01;;;;;;;12.05;5.22;;;13.40;99.90;;;;;;4992182;28;20042;-83
2022/06/04 05:38:27;;;;;;;11.13;5.63;;;13.50;99.90;;;;;;4974616;28;20389;-83
2022/06/04 05:41:01;;;;;;;13.05;7.32;;;13.50;99.90;;;;;;4974618;28;20045;-83
2022/06/04 05:43:27;;;;;;;13.20;5.45;;;13.60;99.90;;;;;;4958441;28;20042;-83
2022/06/04 05:46:14;;;;;;;12.57;7.35;;;13.60;99.90;;;;;;4958392;28;20050;-83
2022/06/04 05:48:42;;;;;;;12.45;7.90;;;13.70;99.90;;;;;;4957949;28;20052;-83
2022/06/04 05:51:14;;;;;;;12.52;5.82;;;13.80;99.90;;;;;;4974913;28;20042;-83
2022/06/04 05:53:40;;;;;;;10.85;5.72;;;13.80;99.90;;;;;;4958453;28;20038;-84
2022/06/04 05:56:27;;;;;;;12.25;5.97;;;13.80;99.90;;;;;;4958134;28;20459;-83
2022/06/04 05:59:01;;;;;;;11.25;6.53;;;13.80;99.90;;;;;;4990621;28;20046;-84
2022/06/04 06:01:31;;;;;;;12.00;7.40;;;13.90;99.90;;;;;;4958150;28;20057;-84
2022/06/04 06:03:57;;;;;;;10.55;5.68;;;14.00;99.90;;;;;;4958464;28;20050;-84
2022/06/04 06:06:26;;;;;;;9.32;4.93;;;14.10;99.90;;;;;;4974347;28;20030;-84
2022/06/04 06:08:52;;;;;;;13.00;7.20;;;14.10;99.90;;;;;;4973563;28;20035;-84
2022/06/04 06:11:19;;;;;;;9.48;5.25;;;14.20;99.90;;;;;;4974402;28;20038;-84
2022/06/04 06:13:46;;;;;;;12.38;6.90;;;14.20;99.90;;;;;;4976968;28;20050;-84
2022/06/04 06:16:14;;;;;;;10.13;6.07;;;14.30;99.90;;;;;;4961508;28;20530;-84
2022/06/04 06:18:40;;;;;;;10.27;7.03;;;14.30;99.90;;;;;;4961819;28;20073;-84
2022/06/04 06:21:11;;;;;;;14.38;5.85;;;14.40;99.90;;;;;;4977802;28;20042;-84
2022/06/04 06:23:38;;;;;;;12.68;6.25;;;14.40;99.90;;;;;;4977537;28;20035;-84
2022/06/04 06:26:12;;;;;;;11.63;6.15;;;14.50;99.90;;;;;;4977875;28;20507;-84
2022/06/04 06:28:39;;;;;;;10.18;5.22;;;14.60;99.90;;;;;;4977505;28;20042;-84
2022/06/04 06:31:06;;;;;;;10.93;6.55;;;14.60;99.90;;;;;;4961520;28;20061;-84
2022/06/04 06:33:32;;;;;;;10.00;5.95;;;14.70;99.90;;;;;;4977446;28;20180;-84
2022/06/04 06:36:00;;;;;;;12.85;6.72;;;14.80;99.90;;;;;;4960797;28;20088;-84
2022/06/04 06:38:27;;;;;;;9.15;4.72;;;14.80;99.90;;;;;;5000129;28;20569;-84
2022/06/04 06:40:54;;;;;;;12.07;6.32;;;14.90;99.90;;;;;;4977441;28;20125;-84
2022/06/04 06:43:20;;;;;;;10.25;6.35;;;14.90;99.90;;;;;;4977564;28;20038;-85
2022/06/04 06:45:46;;;;;;;9.25;6.30;;;15.10;99.90;;;;;;4976359;28;20049;-84
2022/06/04 06:48:12;;;;;;;9.48;6.30;;;15.10;99.90;;;;;;4977344;28;20122;-84
2022/06/04 06:50:39;;;;;;;11.10;6.57;;;15.20;99.90;;;;;;4976950;28;20492;-84
2022/06/04 06:53:04;;;;;;;11.55;6.75;;;15.20;99.90;;;;;;4977052;28;20038;-84
2022/06/04 06:55:30;;;;;;;11.40;5.72;;;15.30;99.90;;;;;;4977054;28;20060;-84
2022/06/04 06:57:56;;;;;;;11.15;5.50;;;15.30;99.90;;;;;;4975592;28;20050;-84
2022/06/04 07:00:22;;;;;;;10.57;5.63;;;15.30;99.90;;;;;;4975341;28;20093;-84
2022/06/04 07:02:47;;;;;;;10.82;5.43;;;15.40;99.90;;;;;;4974866;28;20093;-84
2022/06/04 07:05:13;;;;;;;11.68;6.20;;;15.40;99.90;;;;;;4974674;28;20089;-85
2022/06/04 07:07:39;;;;;;;9.93;6.28;;;15.50;99.90;;;;;;4975029;28;20117;-84
2022/06/04 07:10:06;;;;;;;10.48;5.60;;;15.60;99.90;;;;;;4958829;28;20118;-85
2022/06/04 07:12:31;;;;;;;10.57;6.32;;;15.70;99.90;;;;;;4974962;28;20046;-84
2022/06/04 07:14:58;;;;;;;11.02;6.18;;;15.80;99.90;;;;;;4960501;28;20050;-85
2022/06/04 07:17:24;;;;;;;9.52;5.25;;;15.80;99.90;;;;;;4976668;28;20125;-84
2022/06/04 07:19:50;;;;;;;10.07;5.90;;;15.80;99.90;;;;;;4976385;28;20129;-84
2022/06/04 07:22:15;;;;;;;9.10;5.70;;;15.90;99.90;;;;;;4976704;28;20046;-84
2022/06/04 07:24:41;;;;;;;10.30;5.78;;;15.90;99.90;;;;;;4975424;28;20041;-84
2022/06/04 07:27:08;;;;;;;9.77;5.15;;;16.00;99.90;;;;;;4976982;28;20277;-85
2022/06/04 07:29:34;;;;;;;13.13;6.55;;;16.00;99.90;;;;;;4960266;28;20088;-84
2022/06/04 07:32:00;;;;;;;9.77;5.63;;;16.10;99.90;;;;;;4976506;28;20107;-84
2022/06/04 07:34:26;;;;;;;9.68;5.47;;;16.20;99.90;;;;;;4960708;28;20038;-85
2022/06/04 07:36:53;;;;;;;12.35;5.95;;;16.30;99.90;;;;;;4976412;28;20042;-84
2022/06/04 07:39:19;;;;;;;9.15;5.10;;;16.40;99.90;;;;;;4959895;28;20053;-85
2022/06/04 07:41:47;;;;;;;11.25;5.57;;;16.40;99.90;;;;;;4960176;28;20041;-84
2022/06/04 07:44:15;;;;;;;10.27;5.90;;;16.40;99.90;;;;;;4976320;28;20050;-84
2022/06/04 07:46:41;;;;;;;11.13;5.85;;;16.50;99.90;;;;;;4959826;28;20491;-84
2022/06/04 07:49:08;;;;;;;9.63;6.10;;;16.60;99.90;;;;;;4975948;28;20042;-85
2022/06/04 07:51:36;;;;;;;10.30;6.13;;;16.70;99.90;;;;;;4976501;28;20101;-84
2022/06/04 07:54:03;;;;;;;10.05;5.90;;;16.80;99.90;;;;;;4975807;28;20069;-84
2022/06/04 07:56:28;;;;;;;9.50;5.65;;;16.80;99.90;;;;;;4959878;28;20046;-84
2022/06/04 07:58:54;;;;;;;10.57;5.85;;;16.90;99.90;;;;;;4975673;28;20125;-84
2022/06/04 08:01:21;;;;;;;9.70;5.85;;;17.00;99.90;;;;;;4975815;28;20392;-84
2022/06/04 08:03:48;;;;;;;11.60;6.00;;;17.10;99.90;;;;;;4975986;28;20050;-84
2022/06/04 08:06:17;;;;;;;10.77;5.88;;;17.10;99.90;;;;;;4975837;28;20377;-84
2022/06/04 08:08:43;;;;;;;10.45;5.95;;;17.20;99.90;;;;;;4975420;28;20038;-84
2022/06/04 08:13:54;;;;;;;10.30;6.10;;;17.40;99.90;;;;;;4975873;28;20233;-84
2022/06/04 08:16:20;;;;;;;10.25;5.70;;;17.40;99.90;;;;;;4975407;28;20184;-84
2022/06/04 08:18:46;;;;;;;10.75;5.82;;;17.40;99.90;;;;;;4975737;28;20451;-84
2022/06/04 08:21:12;;;;;;;10.13;5.80;;;17.50;99.90;;;;;;4975551;28;20049;-84
2022/06/04 08:23:39;;;;;;;8.57;5.38;;;17.60;99.90;;;;;;4959063;28;20065;-85
2022/06/04 08:26:07;;;;;;;12.45;5.50;;;17.70;99.90;;;;;;4959577;28;20121;-84
2022/06/04 08:28:33;;;;;;;9.38;5.75;;;17.70;99.90;;;;;;4959528;28;20038;-84
2022/06/04 08:31:10;;;;;;;10.18;5.97;;;17.80;99.90;;;;;;4959087;28;20393;-85
2022/06/04 08:33:36;;;;;;;11.30;6.15;;;17.90;99.90;;;;;;4976001;28;20081;-84
2022/06/04 08:36:05;;;;;;;8.48;5.43;;;18.00;99.90;;;;;;4975083;28;20511;-84
2022/06/04 08:38:30;;;;;;;10.23;5.38;;;18.00;99.90;;;;;;4958637;28;20125;-84
2022/06/04 08:40:59;;;;;;;9.43;6.00;;;18.10;99.90;;;;;;4975398;28;20273;-85
2022/06/04 08:43:33;;;;;;;9.27;5.25;;;18.20;99.90;;;;;;4975050;28;20176;-84
2022/06/04 08:46:02;;;;;;;9.52;5.55;;;18.30;99.90;;;;;;4958890;28;20042;-84
2022/06/04 08:48:32;;;;;;;10.90;5.65;;;18.40;99.90;;;;;;4974924;28;20065;-84
2022/06/04 08:50:58;;;;;;;11.48;5.28;;;18.40;99.90;;;;;;4959108;28;20046;-84
2022/06/04 08:53:27;;;;;;;9.60;5.10;;;18.40;99.90;;;;;;4975075;28;20049;-84
2022/06/04 08:59:36;;;;;;;11.20;5.75;;;18.60;99.90;;;;;;4974384;28;20508;-84
2022/06/04 09:02:04;;;;;;;10.93;5.45;;;18.60;99.90;;;;;;4975059;28;20053;-85
2022/06/04 09:04:48;;;;;;;8.52;4.95;;;18.70;99.90;;;;;;4974877;28;20034;-84
2022/06/04 09:07:35;;;;;;;8.65;5.18;;;18.80;99.90;;;;;;4958918;28;20384;-84
2022/06/04 09:10:06;;;;;;;9.18;5.50;;;18.90;99.90;;;;;;4974917;28;20038;-85
2022/06/04 09:12:41;;;;;;;8.98;5.38;;;18.90;99.90;;;;;;4974700;28;20038;-84
2022/06/04 09:15:31;;;;;;;11.18;5.53;;;18.90;99.90;;;;;;4958594;28;20046;-84
2022/06/04 09:18:01;;;;;;;10.00;5.78;;;19.00;99.90;;;;;;4974734;28;20042;-85
2022/06/04 09:20:37;;;;;;;9.93;5.82;;;19.00;99.90;;;;;;4974755;28;20042;-84
2022/06/04 09:23:29;;;;;;;9.35;5.25;;;19.00;99.90;;;;;;4974315;28;20042;-84
2022/06/04 09:26:08;;;;;;;9.35;5.32;;;19.10;99.90;;;;;;4974885;28;20484;-84
2022/06/04 09:29:00;;;;;;;10.90;5.15;;;19.10;99.90;;;;;;4974377;28;20049;-85
2022/06/04 09:31:28;;;;;;;9.07;4.88;;;19.10;99.90;;;;;;4974894;28;20475;-85
2022/06/04 09:34:02;;;;;;;8.00;4.53;;;19.10;99.90;;;;;;4975012;28;20046;-85
2022/06/04 09:36:32;;;;;;;9.10;5.07;;;19.10;99.70;;;;;;4974703;28;20049;-84
2022/06/04 09:39:02;;;;;;;9.73;4.90;;;19.10;99.80;;;;;;4974314;28;20057;-85
2022/06/04 09:41:29;;;;;;;10.50;4.70;;;19.20;99.30;;;;;;4974756;28;20530;-84
2022/06/04 09:44:22;;;;;;;9.23;5.07;;;19.20;98.80;;;;;;4974097;28;20117;-84
2022/06/04 09:46:51;;;;;;;8.25;4.70;;;19.20;98.90;;;;;;4955407;28;20420;-84
2022/06/04 09:49:29;;;;;;;8.77;4.30;;;19.20;99.10;;;;;;4975392;28;20031;-85
2022/06/04 09:51:55;;;;;;;9.60;4.57;;;19.20;98.00;;;;;;4959439;28;20138;-84
2022/06/04 09:54:28;;;;;;;9.48;4.95;;;19.20;97.20;;;;;;4961814;28;20043;-84
2022/06/04 09:56:56;;;;;;;;;;;19.20;97.00;;;;;;4978176;28;20057;-82
2022/06/04 09:59:25;;;;;;;9.15;4.57;;;19.10;97.60;;;;;;4955116;28;19985;-84
2022/06/04 10:02:02;;;;;;;8.95;4.38;;;19.20;98.10;;;;;;4977935;28;20105;-84
2022/06/04 10:04:37;;;;;;;8.80;4.70;;;19.30;98.10;;;;;;4977247;28;20506;-85
2022/06/04 10:07:12;;;;;;;9.95;4.57;;;19.40;98.50;;;;;;4961224;28;20514;-84
2022/06/04 10:09:58;;;;;;;7.75;4.47;;;19.50;97.90;;;;;;4976616;28;20062;-84
2022/06/04 10:15:41;;;;;;;9.75;4.30;;;19.60;98.70;;;;;;4976539;28;20047;-84
2022/06/04 10:18:16;;;;;;;8.82;4.38;;;19.70;98.30;;;;;;4967915;28;20046;-84
2022/06/04 10:20:58;;;;;;;7.45;3.58;;;19.90;97.90;;;;;;4993654;28;20042;-84
2022/06/04 10:23:26;;;;;;;8.57;4.50;;;20.00;97.80;;;;;;4993967;28;20474;-85
2022/06/04 10:26:12;;;;;;;9.10;4.15;;;20.10;97.00;;;;;;4977828;28;20080;-84
2022/06/04 10:28:49;;;;;;;9.93;4.63;;;20.10;97.20;;;;;;4987907;28;20508;-85
2022/06/04 10:31:33;;;;;;;7.80;4.35;;;20.20;95.50;;;;;;4977064;28;20038;-85
2022/06/04 10:34:14;;;;;;;9.13;4.63;;;20.30;95.30;;;;;;4976598;28;20046;-84
2022/06/04 10:37:02;;;;;;;8.27;4.43;;;20.30;96.20;;;;;;4961072;28;20043;-84
2022/06/04 10:39:48;;;;;;;7.95;4.57;;;20.30;96.40;;;;;;4977384;28;20484;-85
2022/06/04 10:42:32;;;;;;;9.18;4.53;;;20.40;96.40;;;;;;4977287;28;20093;-85
2022/06/04 10:45:06;;;;;;;7.65;4.30;;;20.50;96.80;;;;;;4977406;28;20042;-84
2022/06/04 10:47:43;;;;;;;8.68;4.00;;;20.50;96.60;;;;;;4977025;28;20125;-85
2022/06/04 10:50:16;;;;;;;10.05;4.90;;;20.60;96.60;;;;;;4977121;28;20428;-85
2022/06/04 10:52:44;;;;;;;8.77;5.10;;;20.70;97.10;;;;;;4977313;28;20659;-85
2022/06/04 10:55:41;;;;;;;10.05;4.85;;;20.80;96.40;;;;;;4977355;28;20050;-85
2022/06/04 10:58:38;;;;;;;10.10;5.65;;;21.00;97.30;;;;;;4976592;28;20088;-85
2022/06/04 11:01:06;;;;;;;9.65;4.90;;;21.10;96.10;;;;;;4976966;28;20043;-85
2022/06/04 11:03:48;;;;;;;8.95;4.82;;;21.20;96.60;;;;;;4977036;28;20046;-85
2022/06/04 11:06:32;;;;;;;9.43;5.35;;;21.30;95.60;;;;;;4977107;28;20097;-85
2022/06/04 11:09:09;;;;;;;9.05;5.60;;;21.40;95.30;;;;;;4976583;28;20046;-85
2022/06/04 11:11:51;;;;;;;7.97;4.63;;;21.50;96.30;;;;;;4977125;28;20050;-85
2022/06/04 11:14:36;;;;;;;8.63;4.40;;;21.60;94.50;;;;;;4976685;28;20038;-85
2022/06/04 11:17:17;;;;;;;9.15;5.30;;;21.70;94.80;;;;;;4977035;28;20124;-85
2022/06/04 11:19:50;;;;;;;9.93;5.65;;;21.80;95.40;;;;;;4959765;28;20046;-84
2022/06/04 11:22:19;;;;;;;;;;;22.00;94.70;;;;;;4977037;28;20495;-85
2022/06/04 11:24:57;;;;;;;9.77;4.70;;;22.10;95.40;;;;;;4960249;28;19917;-85
2022/06/04 11:27:35;;;;;;;9.20;4.70;;;22.20;92.20;;;;;;4976276;28;20085;-85
2022/06/04 11:30:06;;;;;;;8.75;4.43;;;22.30;92.30;;;;;;4976605;28;20108;-85
2022/06/04 11:32:57;;;;;;;8.43;4.78;;;22.30;90.80;;;;;;4976565;28;20049;-84
2022/06/04 11:35:43;;;;;;;7.93;4.70;;;22.40;86.10;;;;;;4976247;28;20054;-85
2022/06/04 11:38:20;;;;;;;12.10;6.50;;;22.50;86.90;;;;;;4960121;28;20053;-84
2022/06/04 11:41:10;;;;;;;7.45;4.20;;;22.60;86.10;;;;;;4976491;28;20053;-85
2022/06/04 11:43:46;;;;;;;7.93;3.80;;;22.70;87.00;;;;;;4976011;28;20074;-85
2022/06/04 11:46:32;;;;;;;7.80;3.85;;;22.80;80.50;;;;;;4960622;28;20040;-85
2022/06/04 11:49:23;;;;;;;7.72;3.65;;;22.90;79.10;;;;;;4936233;28;20053;-85
2022/06/04 11:52:02;;;;;;;6.75;3.80;;;23.00;77.90;;;;;;4976295;28;20034;-85
2022/06/04 11:54:36;;;;;;;7.25;3.22;;;23.10;74.40;;;;;;4976312;28;20088;-85
2022/06/04 11:57:06;;;;;;;9.13;3.55;;;23.20;69.90;;;;;;4975582;28;20058;-85
2022/06/04 11:59:43;;;;;;;8.98;3.17;;;23.30;71.00;;;;;;4975803;28;20456;-85
2022/06/04 12:02:26;;;;;;;7.30;3.00;;;23.40;70.80;;;;;;4976122;28;20079;-86
2022/06/04 12:05:06;;;;;;;7.18;3.08;;;23.50;68.50;;;;;;4975834;28;20042;-85
2022/06/04 12:07:45;;;;;;;7.80;3.42;;;23.40;67.60;;;;;;4975555;28;20511;-84
2022/06/04 12:10:40;;;;;;;9.02;3.35;;;23.40;67.00;;;;;;4959414;28;20038;-86
2022/06/04 12:13:24;;;;;;;7.53;3.08;;;23.30;66.60;;;;;;4959506;28;20047;-85
2022/06/04 12:16:03;;;;;;;5.43;2.80;;;23.30;65.60;;;;;;4975779;28;20500;-85
2022/06/04 12:18:34;;;;;;;7.78;3.00;;;23.30;64.90;;;;;;4975708;28;20512;-85
2022/06/04 12:26:41;;;;;;;7.30;3.10;;;23.70;67.40;;;;;;4975528;28;20097;-85
2022/06/04 12:29:28;;;;;;;6.97;2.70;;;23.90;69.00;;;;;;4975199;28;20049;-86
2022/06/04 12:32:00;;;;;;;7.22;2.67;;;24.10;65.80;;;;;;4975864;28;20495;-86
2022/06/04 12:34:32;;;;;;;7.30;3.28;;;24.20;65.50;;;;;;4975250;28;20050;-86
2022/06/04 12:36:58;;;;;;;7.82;3.10;;;24.40;64.80;;;;;;4975664;28;20519;-85
2022/06/04 12:39:44;;;;;;;8.27;3.03;;;24.50;65.20;;;;;;4975046;28;20049;-85
2022/06/04 12:42:22;;;;;;;6.18;2.60;;;24.70;66.50;;;;;;4974699;28;20115;-86
2022/06/04 12:45:01;;;;;;;6.95;2.90;;;24.80;64.50;;;;;;4959322;28;20045;-86
2022/06/04 12:47:30;;;;;;;6.88;2.95;;;24.90;63.40;;;;;;4974917;28;20411;-85
2022/06/04 12:50:23;;;;;;;7.72;3.00;;;25.10;63.90;;;;;;4974809;28;20081;-85
2022/06/04 12:53:15;;;;;;;8.88;3.45;;;25.30;63.30;;;;;;4975355;28;20034;-85
2022/06/04 12:55:54;;;;;;;8.95;2.83;;;25.30;60.90;;;;;;4974944;28;20030;-86
2022/06/04 12:58:41;;;;;;;7.78;2.88;;;25.30;60.30;;;;;;4974756;28;20042;-85
2022/06/04 13:01:13;;;;;;;7.63;3.08;;;25.30;61.00;;;;;;4975035;28;20389;-85
2022/06/04 13:03:43;;;;;;;7.30;3.00;;;25.40;61.90;;;;;;4974683;28;20042;-85
2022/06/04 13:06:12;;;;;;;7.45;3.00;;;25.50;62.40;;;;;;4974864;28;20303;-86
2022/06/04 13:08:51;;;;;;;7.85;2.45;;;25.60;60.70;;;;;;4974800;28;20042;-85
2022/06/04 13:11:40;;;;;;;7.95;2.80;;;25.70;62.10;;;;;;4957623;28;20500;-85
2022/06/04 13:14:31;;;;;;;6.63;2.97;;;25.60;60.00;;;;;;4974322;28;20499;-85
2022/06/04 13:16:58;;;;;;;8.07;3.10;;;25.50;59.80;;;;;;4971911;28;20034;-85
2022/06/04 13:20:00;;;;;;;6.50;2.92;;;25.30;59.70;;;;;;4973106;28;20041;-85
2022/06/04 13:22:34;;;;;;;6.82;2.80;;;25.20;59.00;;;;;;4973739;28;20034;-85
2022/06/04 13:25:05;;;;;;;7.63;3.20;;;25.10;59.80;;;;;;4972042;28;20041;-85
2022/06/04 13:27:43;;;;;;;7.40;3.13;;;25.00;60.00;;;;;;4973182;28;20038;-85